Flight Track Log - Related Links

Times and Time Zones

All times are in EDT time to prevent confusion due to time zone crossing. See the SKW2988 flight status page for this flight to view local times or setup timezone preferences in your user account.


Time Position Orientation Groundspeed Altitude Reporting Facility
EDT Latitude Longitude Course Direction KTS MPH feet Rate Location/Type
Sat 10:19:21 PM 36.7936 -119.7553 255° West 152 175 1,600  Level Oakland Center
Sat 10:20:21 PM 36.7814 -119.8139 255° West 214 246 4,600 3,124 Climbing Oakland Center
Sat 10:21:22 PM 36.7175 -119.8056 174° South 239 275 7,900 3,000 Climbing Oakland Center
Sat 10:22:23 PM 36.6525 -119.7661 154° Southeast 259 298 10,700 2,380 Climbing Oakland Center
Sat 10:23:23 PM 36.5764 -119.7222 155° Southeast 297 342 12,700 2,331 Climbing Oakland Center
Sat 10:24:24 PM 36.4939 -119.6750 155° Southeast 322 371 15,400 2,361 Climbing Oakland Center
Sat 10:25:25 PM 36.4078 -119.6250 155° Southeast 339 390 17,500 2,281 Climbing Oakland Center
Sat 10:26:25 PM 36.3175 -119.5719 155° Southeast 356 410 20,000 2,231 Climbing Oakland Center
Sat 10:27:26 PM 36.2256 -119.5189 155° Southeast 363 418 22,000 1,770 Climbing Oakland Center
Sat 10:28:27 PM 36.1294 -119.4633 155° Southeast 378 435 23,600 1,537 Climbing Oakland Center
Sat 10:29:27 PM 36.0358 -119.3958 150° Southeast 392 451 25,100 1,438 Climbing Oakland Center
Sat 10:30:28 PM 35.9842 -119.2722 117° Southeast 399 459 26,500 1,317 Climbing Oakland Center
Sat 10:31:30 PM 35.9311 -119.1397 116° Southeast 412 474 27,800 1,131 Climbing Oakland Center
Sat 10:32:30 PM 35.8639 -118.9764 117° Southeast 434 499 28,800 950 Climbing Oakland Center
Sat 10:33:30 PM 35.8069 -118.8350 116° Southeast 451 519 29,700 843 Climbing Oakland Center
Sat 10:34:31 PM 35.7481 -118.6928 117° Southeast 460 529 30,500 742 Climbing Oakland Center
Sat 10:35:07 PM 35.7153 -118.6075 115° Southeast 459 528 30,900 796 Climbing Los Angeles Center
Sat 10:36:09 PM 35.6514 -118.4600 118° Southeast 470 541 31,800 1,024 Climbing Los Angeles Center
Sat 10:37:10 PM 35.5908 -118.3161 117° Southeast 476 548 33,000 590 Climbing Los Angeles Center
Sat 10:38:11 PM 35.5317 -118.1728 117° Southeast 472 543 33,000  Level Los Angeles Center
Sat 10:39:12 PM 35.4700 -118.0261 117° Southeast 480 552 33,000  Level Los Angeles Center
Sat 10:40:13 PM 35.4092 -117.8806 117° Southeast 480 552 33,000  Level Los Angeles Center
Sat 10:41:15 PM 35.3475 -117.7347 117° Southeast 479 551 33,000  Level Los Angeles Center
Sat 10:42:16 PM 35.2861 -117.5894 117° Southeast 477 549 33,000  Level Los Angeles Center
Sat 10:43:17 PM 35.2236 -117.4428 118° Southeast 477 549 33,000  Level Los Angeles Center
Sat 10:44:18 PM 35.1611 -117.2992 118° Southeast 469 540 33,000  Level Los Angeles Center
Sat 10:45:20 PM 35.1003 -117.1575 118° Southeast 466 536 33,000  Level Los Angeles Center
Sat 10:46:21 PM 35.0392 -117.0164 118° Southeast 468 539 33,000  Level Los Angeles Center
Sat 10:47:22 PM 34.9783 -116.8758 118° Southeast 469 540 33,000  Level Los Angeles Center
Sat 10:48:23 PM 34.9392 -116.7225 107° East 472 543 33,000  Level Los Angeles Center
Sat 10:49:25 PM 34.9622 -116.5283 82° East 486 559 33,000  Level Los Angeles Center
Sat 10:50:26 PM 34.9972 -116.3725 75° East 481 554 33,000  Level Los Angeles Center
Sat 10:51:39 PM 35.0386 -116.1819 75° East 485 558 33,000  Level Los Angeles Center
Sat 10:52:41 PM 35.0758 -116.0228 74° East 489 563 33,000  Level Los Angeles Center
Sat 10:53:42 PM 35.1094 -115.8661 75° East 483 556 33,000  Level Los Angeles Center
Sat 10:54:43 PM 35.1433 -115.7086 75° East 482 555 33,000  Level Los Angeles Center
Sat 10:55:44 PM 35.1781 -115.5519 75° East 481 554 33,000  Level Los Angeles Center
Sat 10:56:45 PM 35.2081 -115.3981 77° East 471 542 33,000  Level Los Angeles Center
Sat 10:57:47 PM 35.2478 -115.2100 75° East 474 545 33,000  Level Los Angeles Center
Sat 10:58:48 PM 35.2817 -115.0536 75° East 476 548 33,000  Level Los Angeles Center
Sat 10:59:49 PM 35.2889 -114.8894 87° East 477 549 33,000  Level Los Angeles Center
Sat 11:00:50 PM 35.2928 -114.7283 88° East 474 545 33,000  Level Los Angeles Center
Sat 11:01:52 PM 35.2953 -114.5669 89° East 476 548 33,000 -222 Level Los Angeles Center
Sat 11:03:05 PM 35.2953 -114.4061 90° East 475 547 32,500 -537 Descending Los Angeles Center
Sat 11:04:06 PM 35.2983 -114.2061 89° East 489 563 31,800 -634 Descending Los Angeles Center
Sat 11:05:08 PM 35.3000 -114.0394 89° East 491 565 31,200 -585 Descending Los Angeles Center
Sat 11:06:09 PM 35.3022 -113.8603 89° East 493 567 30,600 -590 Descending Los Angeles Center
Sat 11:07:10 PM 35.3028 -113.6939 90° East 492 566 30,000 -590 Descending Los Angeles Center
Sat 11:08:11 PM 35.2864 -113.5372 97° East 474 545 29,400 -448 Descending Los Angeles Center
Sat 11:09:24 PM 35.2167 -113.4103 124° Southeast 457 526 29,000 -178 Descending Los Angeles Center
Sat 11:10:26 PM 35.1222 -113.2381 124° Southeast 442 509 29,000  Level Los Angeles Center
Sat 11:11:27 PM 35.0572 -113.1175 123° Southeast 434 499 29,000  Level Los Angeles Center
Sat 11:12:28 PM 34.9892 -112.9947 124° Southeast 440 506 29,000 -98 Level Los Angeles Center
Sat 11:13:30 PM 34.9181 -112.8667 124° Southeast 455 524 28,800 -576 Descending Los Angeles Center
Sat 11:14:33 PM 34.8467 -112.7392 124° Southeast 458 527 27,800 -1,220 Descending Albuquerque Center
Sat 11:15:33 PM 34.7647 -112.5928 124° Southeast 444 511 26,300 -1,438 Descending Albuquerque Center
Sat 11:16:34 PM 34.6969 -112.4753 125° Southeast 433 498 24,900 -1,525 Descending Albuquerque Center
Sat 11:17:35 PM 34.6106 -112.3914 141° Southeast 401 461 23,200 -1,785 Descending Albuquerque Center
Sat 11:18:35 PM 34.5233 -112.3069 141° Southeast 386 444 21,300 -1,835 Descending Albuquerque Center
Sat 11:19:36 PM 34.4403 -112.2303 143° Southeast 378 435 19,500 -1,721 Descending Albuquerque Center
Sat 11:20:37 PM 34.3453 -112.2044 167° South 350 403 17,800 -1,525 Descending Albuquerque Center
Sat 11:21:38 PM 34.2525 -112.1797 168° South 346 398 16,400 -1,388 Descending Albuquerque Center
Sat 11:22:38 PM 34.1544 -112.1550 168° South 360 414 15,000 -1,388 Descending Albuquerque Center
Sat 11:23:39 PM 34.0550 -112.1289 168° South 369 425 13,600 -1,377 Descending Albuquerque Center
Sat 11:24:40 PM 33.9603 -112.1047 168° South 355 409 12,200 -1,289 Descending Albuquerque Center
Sat 11:25:40 PM 33.8678 -112.0819 168° South 345 397 11,000 -992 Descending Albuquerque Center
Sat 11:26:41 PM 33.7797 -112.0589 168° South 330 380 10,200 -689 Descending Albuquerque Center
Sat 11:27:42 PM 33.6986 -112.0428 171° South 291 335 9,600 -443 Descending Albuquerque Center
Sat 11:28:43 PM 33.6275 -112.0303 172° South 257 296 9,300 -645 Descending Albuquerque Center
Sat 11:29:43 PM 33.5539 -112.0019 162° South 235 270 8,300 -942 Descending Albuquerque Center
Sat 11:30:44 PM 33.5300 -111.9342 113° Southeast 244 281 7,400 -1,082 Descending Albuquerque Center
Sat 11:31:45 PM 33.5264 -111.8564 93° East 237 273 6,100 -1,190 Descending Albuquerque Center
Sat 11:32:45 PM 33.4725 -111.8386 165° South 213 245 5,000 -1,537 Descending Albuquerque Center
Sat 11:33:46 PM 33.4422 -111.8847 232° Southwest 195 224 3,000 -1,426 Descending Albuquerque Center
Sat 11:34:47 PM 33.4408 -111.9406 268° West 172 198 2,100 -793 Descending Albuquerque Center
Sat 11:35:47 PM 33.4403 -111.9844 269° West 132 152 1,400 -700 Descending Albuquerque Center
Sat 11:37:00 PM 33.4333 -112.0000 270° West  Level FlightAware Approximate

Login

Don't have an account? Register now (free) for customized features, flight alerts, and more!